createdAt,value
2023-04-02T00:00:09.720Z,2.88
2023-04-02T00:05:18.157Z,2.45
2023-04-02T00:10:27.955Z,3.65
2023-04-02T00:15:26.997Z,2.83
2023-04-02T00:20:27.359Z,2.92
2023-04-02T00:25:43.092Z,2.65
2023-04-02T00:31:10.662Z,2.97
2023-04-02T00:36:09.634Z,2.40
2023-04-02T00:41:08.511Z,2.05
2023-04-02T00:46:24.185Z,2.05
2023-04-02T00:51:26.017Z,2.42
2023-04-02T00:56:36.646Z,2.58
2023-04-02T01:01:37.838Z,2.67
2023-04-02T01:06:38.920Z,2.78
2023-04-02T01:11:52.822Z,3.08
2023-04-02T01:17:10.845Z,3.30
2023-04-02T01:22:21.875Z,2.60
2023-04-02T01:27:23.642Z,3.28
2023-04-02T01:32:24.866Z,3.10
2023-04-02T01:37:36.842Z,2.20
2023-04-02T01:43:08.721Z,2.38
2023-04-02T01:48:16.889Z,2.55
2023-04-02T01:53:18.023Z,2.85
2023-04-02T01:58:26.337Z,2.60
2023-04-02T02:03:27.157Z,2.33
2023-04-02T02:08:34.689Z,2.45
2023-04-02T02:13:34.000Z,1.73
2023-04-02T02:18:33.357Z,1.92
2023-04-02T02:23:32.624Z,1.50
2023-04-02T02:28:36.689Z,1.80
2023-04-02T02:33:58.899Z,2.00
2023-04-02T02:39:25.626Z,2.20
2023-04-02T02:44:27.554Z,1.80
2023-04-02T02:49:38.153Z,1.45
2023-04-02T02:54:42.582Z,1.60
2023-04-02T02:59:43.085Z,1.70
2023-04-02T03:04:47.363Z,1.45
2023-04-02T03:10:12.521Z,1.40
2023-04-02T03:15:32.289Z,1.17
2023-04-02T03:20:31.230Z,1.42
2023-04-02T03:26:01.977Z,1.33
2023-04-02T03:31:33.856Z,1.30
2023-04-02T03:36:38.508Z,1.33
2023-04-02T03:41:47.538Z,1.10
2023-04-02T03:46:57.496Z,1.15
2023-04-02T03:52:05.888Z,0.90
2023-04-02T03:57:18.263Z,1.02
2023-04-02T04:02:26.861Z,1.08
2023-04-02T04:07:54.237Z,1.10
2023-04-02T04:13:01.438Z,1.20
2023-04-02T04:18:38.042Z,1.25
2023-04-02T04:23:50.212Z,1.30
2023-04-02T04:29:12.588Z,1.13
2023-04-02T04:34:16.650Z,1.55
2023-04-02T04:39:23.967Z,1.10
2023-04-02T04:44:28.804Z,1.55
2023-04-02T04:50:08.654Z,1.55
2023-04-02T04:55:42.978Z,1.50
2023-04-02T05:01:07.723Z,1.30
2023-04-02T05:06:35.719Z,1.40
2023-04-02T05:11:43.790Z,2.00
2023-04-02T05:16:49.986Z,1.50
2023-04-02T05:22:00.068Z,1.30
2023-04-02T05:32:28.555Z,1.65
2023-04-02T05:37:31.116Z,1.90
2023-04-02T05:42:37.783Z,1.48
2023-04-02T05:47:44.630Z,1.73
2023-04-02T05:53:21.822Z,1.70
2023-04-02T05:58:37.320Z,2.00
2023-04-02T06:04:22.354Z,2.20
2023-04-02T06:09:29.470Z,1.65
2023-04-02T06:14:28.496Z,1.70
2023-04-02T06:19:37.397Z,1.52
2023-04-02T06:24:40.367Z,1.38
2023-04-02T06:29:44.248Z,1.90
2023-04-02T06:34:47.651Z,1.65
2023-04-02T06:39:48.966Z,1.52
2023-04-02T06:44:50.158Z,2.28
2023-04-02T06:50:41.001Z,1.50
2023-04-02T06:55:47.004Z,1.50
2023-04-02T07:00:50.811Z,1.58
2023-04-02T07:06:05.425Z,1.60
2023-04-02T07:11:06.207Z,2.20
2023-04-02T07:16:06.065Z,1.65
2023-04-02T07:21:05.515Z,2.13
2023-04-02T07:26:05.398Z,2.00
2023-04-02T07:31:04.338Z,1.77
2023-04-02T07:36:03.342Z,1.95
2023-04-02T07:41:06.578Z,1.60
2023-04-02T07:46:06.327Z,1.40
2023-04-02T07:51:06.135Z,1.63
2023-04-02T07:56:07.286Z,1.95
2023-04-02T08:01:19.489Z,1.75
2023-04-02T08:06:18.660Z,1.80
2023-04-02T08:11:17.729Z,1.88
2023-04-02T08:16:16.921Z,1.50
2023-04-02T08:21:16.618Z,1.73
2023-04-02T08:26:18.982Z,1.80
2023-04-02T08:31:18.148Z,1.58
2023-04-02T08:36:18.410Z,1.55
2023-04-02T08:41:24.656Z,0.93
2023-04-02T08:46:30.711Z,1.10
2023-04-02T08:51:34.333Z,1.10
2023-04-02T08:57:06.690Z,1.38
2023-04-02T09:02:35.813Z,2.80
2023-04-02T09:07:34.972Z,2.60
2023-04-02T09:12:34.645Z,2.20
2023-04-02T09:17:42.699Z,2.28
2023-04-02T09:22:48.564Z,2.55
2023-04-02T09:27:50.457Z,1.63
2023-04-02T09:32:58.121Z,1.80
2023-04-02T09:38:09.088Z,1.90
2023-04-02T09:43:18.522Z,1.80
2023-04-02T09:48:22.253Z,1.83
2023-04-02T09:53:35.563Z,1.92
2023-04-02T09:58:34.385Z,2.22
2023-04-02T10:03:34.456Z,1.73
2023-04-02T10:08:33.433Z,2.75
2023-04-02T10:13:51.566Z,2.03
2023-04-02T10:18:59.478Z,2.17
2023-04-02T10:23:59.685Z,2.72
2023-04-02T10:29:21.644Z,1.73
2023-04-02T10:39:38.683Z,1.90
2023-04-02T10:44:47.822Z,1.90
2023-04-02T10:50:08.309Z,1.85
2023-04-02T10:55:31.952Z,1.70
2023-04-02T11:00:44.848Z,1.70
2023-04-02T11:05:46.765Z,1.67
2023-04-02T11:10:59.231Z,1.77
2023-04-02T11:15:58.238Z,1.70
2023-04-02T11:21:09.123Z,1.33
2023-04-02T11:26:32.623Z,1.33
2023-04-02T11:31:32.155Z,1.73
2023-04-02T11:36:53.032Z,1.73
2023-04-02T11:42:03.082Z,1.63
2023-04-02T11:47:16.625Z,1.83
2023-04-02T11:52:23.921Z,1.77
2023-04-02T11:58:00.485Z,1.80
2023-04-02T12:03:36.118Z,2.75
2023-04-02T12:08:59.028Z,1.73
2023-04-02T12:13:59.122Z,1.65
2023-04-02T12:18:59.406Z,1.70
2023-04-02T12:23:59.579Z,1.83
2023-04-02T12:29:27.192Z,2.00
2023-04-02T12:34:29.026Z,1.83
2023-04-02T12:39:28.483Z,1.52
2023-04-02T12:44:29.666Z,2.17
2023-04-02T12:49:37.192Z,2.22
2023-04-02T12:54:51.162Z,1.92
2023-04-02T12:59:52.229Z,2.33
2023-04-02T13:05:01.032Z,1.55
2023-04-02T13:10:06.366Z,1.77
2023-04-02T13:15:08.324Z,1.60
2023-04-02T13:20:30.974Z,1.83
2023-04-02T13:25:36.504Z,1.70
2023-04-02T13:30:35.558Z,1.25
2023-04-02T13:35:34.598Z,1.20
2023-04-02T13:40:34.941Z,0.98
2023-04-02T13:45:37.805Z,1.45
2023-04-02T13:50:36.968Z,1.20
2023-04-02T13:55:40.185Z,1.35
2023-04-02T14:00:39.058Z,1.45
2023-04-02T14:05:49.889Z,1.40
2023-04-02T14:11:03.444Z,1.23
2023-04-02T14:16:34.678Z,1.20
2023-04-02T14:21:45.985Z,1.27
2023-04-02T14:27:07.539Z,1.20
2023-04-02T14:32:08.023Z,1.40
2023-04-02T14:37:38.258Z,1.40
2023-04-02T14:42:52.139Z,1.20
2023-04-02T14:47:57.675Z,1.75
2023-04-02T14:53:02.211Z,1.02
2023-04-02T14:58:05.564Z,1.88
2023-04-02T15:03:07.634Z,1.77
2023-04-02T15:08:15.600Z,1.40
2023-04-02T15:13:21.380Z,1.80
2023-04-02T15:18:20.164Z,1.83
2023-04-02T15:23:51.113Z,2.30
2023-04-02T15:29:28.869Z,1.88
2023-04-02T15:35:01.014Z,1.83
2023-04-02T15:40:02.844Z,1.55
2023-04-02T15:45:09.660Z,1.52
2023-04-02T15:50:42.884Z,1.40
2023-04-02T15:56:04.232Z,1.15
2023-04-02T16:01:29.548Z,1.70
2023-04-02T16:06:56.661Z,1.33
2023-04-02T16:12:17.051Z,1.20
2023-04-02T16:17:25.388Z,0.82
2023-04-02T16:22:28.437Z,1.35
2023-04-02T16:27:40.349Z,1.40
2023-04-02T16:32:51.459Z,1.45
2023-04-02T16:38:07.857Z,1.40
2023-04-02T16:43:09.690Z,1.70
2023-04-02T16:48:24.136Z,1.48
2023-04-02T16:54:01.115Z,1.50
2023-04-02T16:59:48.926Z,1.27
2023-04-02T17:09:57.309Z,1.20
2023-04-02T17:15:11.516Z,0.98
2023-04-02T17:20:21.062Z,1.63
2023-04-02T17:25:25.960Z,1.52
2023-04-02T17:30:48.002Z,1.70
2023-04-02T17:59:29.917Z,2.00
2023-04-02T18:04:41.775Z,1.85
2023-04-02T18:09:46.999Z,2.55
2023-04-02T18:15:23.490Z,2.08
2023-04-02T18:20:37.338Z,2.33
2023-04-02T18:26:07.001Z,2.00
2023-04-02T18:31:11.886Z,2.10
2023-04-02T18:36:28.469Z,3.13
2023-04-02T18:41:36.522Z,2.28
2023-04-02T18:46:41.423Z,2.20
2023-04-02T18:51:40.356Z,2.22
2023-04-02T18:56:40.491Z,2.42
2023-04-02T19:01:44.196Z,2.60
2023-04-02T19:06:47.204Z,2.55
2023-04-02T19:11:47.840Z,2.38
2023-04-02T19:17:23.244Z,2.65
2023-04-02T19:22:49.898Z,2.20
2023-04-02T19:28:07.249Z,2.22
2023-04-02T19:33:15.007Z,2.17
2023-04-02T19:38:39.873Z,2.33
2023-04-02T19:43:38.646Z,2.55
2023-04-02T19:48:47.974Z,2.70
2023-04-02T19:53:46.700Z,2.58
2023-04-02T19:58:45.835Z,2.40
2023-04-02T20:03:44.836Z,2.33
2023-04-02T20:08:43.768Z,2.35
2023-04-02T20:13:45.189Z,2.00
2023-04-02T20:18:44.007Z,2.05
2023-04-02T20:23:42.934Z,1.55
2023-04-02T20:28:41.826Z,2.47
2023-04-02T20:33:41.384Z,2.45
2023-04-02T20:38:40.546Z,2.05
2023-04-02T20:43:40.887Z,2.72
2023-04-02T20:48:43.289Z,2.22
2023-04-02T21:03:22.153Z,1.77
2023-04-02T21:08:21.282Z,1.58
2023-04-02T21:13:20.437Z,1.88
2023-04-02T21:18:19.702Z,1.52
2023-04-02T21:23:18.489Z,1.77
2023-04-02T21:28:17.403Z,2.72
2023-04-02T21:33:16.332Z,1.38
2023-04-02T21:38:15.380Z,1.00
2023-04-02T21:43:14.124Z,1.38
2023-04-02T21:48:12.968Z,1.23
2023-04-02T21:53:11.910Z,1.27
2023-04-02T21:58:10.773Z,1.45
2023-04-02T22:03:11.730Z,1.35
2023-04-02T22:08:13.170Z,1.33
2023-04-02T22:13:11.983Z,1.15
2023-04-02T22:18:10.960Z,0.98
2023-04-02T22:23:10.326Z,1.50
2023-04-02T22:28:09.475Z,0.93
2023-04-02T22:33:08.622Z,1.13
2023-04-02T22:38:07.625Z,1.13
2023-04-02T22:43:06.432Z,1.10
2023-04-02T22:48:05.442Z,1.10
2023-04-02T22:53:04.680Z,1.98
2023-04-02T22:58:03.500Z,1.52
2023-04-02T23:03:02.675Z,0.95
2023-04-02T23:08:01.613Z,1.17
2023-04-02T23:13:00.686Z,1.17
2023-04-02T23:17:59.558Z,1.05
2023-04-02T23:22:58.350Z,1.13
2023-04-02T23:27:57.215Z,0.98
2023-04-02T23:32:56.223Z,1.13
2023-04-02T23:37:55.005Z,1.20
2023-04-02T23:42:53.781Z,0.98
2023-04-02T23:47:52.596Z,0.57
2023-04-02T23:52:51.505Z,1.42
2023-04-02T23:57:51.449Z,1.00
